Time;durP1;ratioP1;P1;durP2;ratioP2;P2;SDS_P1;SDS_P2;PMS_P1;PMS_P2;Temp;Humidity;BMP_temperature;BMP_pressure;BME280_temperature;BME280_humidity;BME280_pressure;Samples;Min_cycle;Max_cycle;Signal;HPM_P1;HPM_P2
2023/10/15 00:00:35;;;;;;;3.92;0.50;;;8.60;1.00;;;;;;5030072;28;20411;-68
2023/10/15 00:03:02;;;;;;;3.90;0.50;;;8.60;1.00;;;;;;5031021;28;20383;-68
2023/10/15 00:05:28;;;;;;;4.22;0.50;;;8.60;1.00;;;;;;5030436;28;20398;-68
2023/10/15 00:07:54;;;;;;;4.20;0.55;;;8.50;1.00;;;;;;5029987;28;20427;-69
2023/10/15 00:10:25;;;;;;;4.20;0.40;;;8.50;1.00;;;;;;5027387;28;20400;-68
2023/10/15 00:12:52;;;;;;;5.22;0.80;;;8.50;1.00;;;;;;5030470;28;20749;-68
2023/10/15 00:15:19;;;;;;;4.60;0.70;;;8.40;1.00;;;;;;5029875;28;20418;-68
2023/10/15 00:17:52;;;;;;;6.43;0.65;;;8.40;1.00;;;;;;5030288;28;20407;-68
2023/10/15 00:20:20;;;;;;;4.40;0.40;;;8.30;1.00;;;;;;5030013;28;20391;-68
2023/10/15 00:22:47;;;;;;;4.00;0.50;;;8.30;1.00;;;;;;5030440;28;20387;-68
2023/10/15 00:25:18;;;;;;;4.88;0.60;;;8.30;1.00;;;;;;5029903;28;20399;-68
2023/10/15 00:27:54;;;;;;;4.03;0.35;;;8.30;1.00;;;;;;5027839;28;20395;-68
2023/10/15 00:30:20;;;;;;;6.78;0.57;;;8.40;1.00;;;;;;5027122;28;20395;-69
2023/10/15 00:32:47;;;;;;;5.00;1.00;;;8.40;1.00;;;;;;5028892;28;20449;-69
2023/10/15 00:35:13;;;;;;;3.85;0.30;;;8.50;99.90;;;;;;5027971;28;20530;-69
2023/10/15 00:37:54;;;;;;;3.90;0.50;;;8.50;99.90;;;;;;5029540;28;20397;-69
2023/10/15 00:40:21;;;;;;;3.90;0.40;;;8.50;99.90;;;;;;5030547;28;20387;-69
2023/10/15 00:42:47;;;;;;;5.20;0.70;;;8.60;99.90;;;;;;5033217;28;20379;-69
2023/10/15 00:45:20;;;;;;;4.17;0.57;;;8.70;99.90;;;;;;5029398;28;20391;-69
2023/10/15 00:47:54;;;;;;;3.92;0.47;;;8.70;99.90;;;;;;5027616;28;20390;-69
2023/10/15 00:50:20;;;;;;;3.90;0.40;;;8.80;99.90;;;;;;5029648;28;20383;-69
2023/10/15 00:52:48;;;;;;;3.90;0.40;;;8.90;99.90;;;;;;5029580;28;20478;-69
2023/10/15 00:55:19;;;;;;;8.38;0.65;;;8.90;99.90;;;;;;5029287;28;20415;-69
2023/10/15 00:57:55;;;;;;;8.03;0.90;;;8.90;99.90;;;;;;5027163;28;20888;-69
2023/10/15 01:00:54;;;;;;;3.90;0.60;;;9.00;99.90;;;;;;5026829;28;20495;-69
2023/10/15 01:03:14;;;;;;;6.70;0.50;;;9.00;99.90;;;;;;5021909;28;20406;-69
2023/10/15 01:05:53;;;;;;;4.03;0.63;;;9.10;99.90;;;;;;5029161;28;20390;-68
2023/10/15 01:08:25;;;;;;;4.00;0.40;;;9.10;99.90;;;;;;5029027;28;20430;-68
2023/10/15 01:11:10;;;;;;;4.90;0.43;;;9.20;99.90;;;;;;5029133;28;20907;-68
2023/10/15 01:13:37;;;;;;;4.25;0.47;;;9.20;99.90;;;;;;5027983;28;20402;-68
2023/10/15 01:16:05;;;;;;;4.45;0.60;;;9.20;99.90;;;;;;5029709;28;20423;-68
2023/10/15 01:18:31;;;;;;;3.90;0.40;;;9.30;99.90;;;;;;5029982;28;20376;-68
2023/10/15 01:21:01;;;;;;;4.20;0.60;;;9.30;72.00;;;;;;5028655;28;20418;-68
2023/10/15 01:23:44;;;;;;;4.20;0.60;;;9.30;66.20;;;;;;5029051;28;20476;-68
2023/10/15 01:26:14;;;;;;;4.30;0.70;;;9.30;99.90;;;;;;5027500;28;20721;-68
2023/10/15 01:28:40;;;;;;;3.80;0.30;;;9.40;99.90;;;;;;5028628;28;20384;-68
2023/10/15 01:31:06;;;;;;;5.00;0.50;;;9.40;24.20;;;;;;5028691;28;20746;-68
2023/10/15 01:33:45;;;;;;;4.40;0.60;;;9.50;1.00;;;;;;5029204;28;20391;-69
2023/10/15 01:36:15;;;;;;;4.38;0.50;;;9.50;1.00;;;;;;5028719;28;20530;-69
2023/10/15 01:38:43;;;;;;;3.92;0.40;;;9.60;1.00;;;;;;5026166;28;20383;-69
2023/10/15 01:41:13;;;;;;;5.50;1.00;;;9.60;1.00;;;;;;5027091;28;20411;-69
2023/10/15 01:43:46;;;;;;;4.93;0.60;;;9.60;1.00;;;;;;5027910;28;20395;-69
2023/10/15 01:46:12;;;;;;;4.00;0.50;;;9.70;1.00;;;;;;5028575;28;20407;-69
2023/10/15 01:48:41;;;;;;;4.80;0.77;;;9.70;1.00;;;;;;5028580;28;20387;-69
2023/10/15 01:51:07;;;;;;;4.30;0.68;;;9.70;1.00;;;;;;5028551;28;20474;-69
2023/10/15 01:53:37;;;;;;;4.35;0.63;;;9.80;1.00;;;;;;5029117;28;20815;-69
2023/10/15 01:56:04;;;;;;;4.30;0.90;;;9.90;1.00;;;;;;5026426;28;20439;-69
2023/10/15 01:58:32;;;;;;;4.75;0.95;;;9.90;1.00;;;;;;5028788;28;20625;-69
2023/10/15 02:01:09;;;;;;;4.50;0.60;;;10.00;1.00;;;;;;5028423;28;20383;-69
2023/10/15 02:03:37;;;;;;;4.63;0.70;;;10.10;1.00;;;;;;5027360;28;20403;-69
2023/10/15 02:06:06;;;;;;;6.60;0.90;;;10.20;1.00;;;;;;5026736;28;20403;-69
2023/10/15 02:08:33;;;;;;;4.40;0.60;;;10.20;1.00;;;;;;5029111;28;21484;-69
2023/10/15 02:11:03;;;;;;;3.90;0.40;;;10.20;99.90;;;;;;5028646;28;20390;-69
2023/10/15 02:13:30;;;;;;;4.60;0.50;;;10.10;99.90;;;;;;5027479;28;20402;-69
2023/10/15 02:15:56;;;;;;;8.70;0.80;;;10.10;1.00;;;;;;5027721;28;20435;-69
2023/10/15 02:18:22;;;;;;;4.20;0.53;;;10.10;1.00;;;;;;5027349;28;20380;-69
2023/10/15 02:23:20;;;;;;;3.90;0.30;;;10.30;1.00;;;;;;5028259;28;20403;-69
2023/10/15 02:25:58;;;;;;;4.30;0.70;;;10.30;1.00;;;;;;5027443;28;20480;-69
2023/10/15 02:28:25;;;;;;;4.55;0.65;;;10.40;1.00;;;;;;5026247;28;20406;-69
2023/10/15 02:30:59;;;;;;;4.03;0.52;;;10.40;99.90;;;;;;5028658;28;20964;-69
2023/10/15 02:33:25;;;;;;;4.27;0.50;;;10.30;99.90;;;;;;5026189;28;20445;-69
2023/10/15 02:35:54;;;;;;;7.30;0.63;;;10.20;99.90;;;;;;5028482;28;20995;-69
2023/10/15 02:38:25;;;;;;;4.17;0.70;;;10.20;99.90;;;;;;5028246;28;20391;-69
2023/10/15 02:41:03;;;;;;;4.30;0.80;;;10.30;1.00;;;;;;5028539;28;20486;-69
2023/10/15 02:43:29;;;;;;;4.00;0.30;;;10.30;99.90;;;;;;5027904;28;20461;-69
2023/10/15 02:46:00;;;;;;;4.90;0.70;;;10.20;99.90;;;;;;5028597;28;20433;-69
2023/10/15 02:48:26;;;;;;;5.32;0.88;;;10.20;1.00;;;;;;5023597;28;20407;-69
2023/10/15 02:51:07;;;;;;;4.50;0.60;;;10.30;1.00;;;;;;5028261;28;20395;-69
2023/10/15 02:53:35;;;;;;;4.75;1.25;;;10.30;1.00;;;;;;5027736;28;20391;-69
2023/10/15 02:56:10;;;;;;;5.10;0.50;;;10.20;1.00;;;;;;5031162;28;20411;-69
2023/10/15 02:58:39;;;;;;;9.50;0.65;;;10.20;1.00;;;;;;5032241;28;20407;-69
2023/10/15 03:01:19;;;;;;;4.10;0.50;;;10.20;1.00;;;;;;5027053;28;20422;-69
2023/10/15 03:03:52;;;;;;;4.70;0.82;;;10.20;1.00;;;;;;5026866;28;20417;-69
2023/10/15 03:06:34;;;;;;;12.70;1.00;;;10.20;1.00;;;;;;5031502;28;20473;-69
2023/10/15 03:09:00;;;;;;;7.60;0.77;;;10.10;47.60;;;;;;5031491;28;20403;-69
2023/10/15 03:11:32;;;;;;;5.00;0.60;;;10.10;99.90;;;;;;5031396;28;20399;-69
2023/10/15 03:14:00;;;;;;;4.80;0.80;;;10.00;96.90;;;;;;5031269;28;20391;-69
2023/10/15 03:16:30;;;;;;;6.00;0.70;;;10.00;99.90;;;;;;5031215;28;20418;-69
2023/10/15 03:18:57;;;;;;;4.40;0.50;;;9.90;99.90;;;;;;5030078;28;20395;-69
2023/10/15 03:21:25;;;;;;;3.92;0.32;;;9.90;99.90;;;;;;5029160;28;20411;-69
2023/10/15 03:23:55;;;;;;;4.17;0.50;;;9.90;99.90;;;;;;5030614;28;20434;-69
2023/10/15 03:26:24;;;;;;;4.10;0.60;;;9.90;99.90;;;;;;5030948;28;20394;-69
2023/10/15 03:28:58;;;;;;;4.10;0.60;;;9.90;99.90;;;;;;5031059;28;20699;-69
2023/10/15 03:31:25;;;;;;;4.50;0.50;;;9.90;99.90;;;;;;5028799;28;20868;-69
2023/10/15 03:39:15;;;;;;;4.00;0.50;;;9.90;99.90;;;;;;5029258;28;20396;-69
2023/10/15 03:41:52;;;;;;;4.22;0.60;;;10.00;99.90;;;;;;5031055;28;20395;-69
2023/10/15 03:44:23;;;;;;;9.80;1.40;;;10.00;99.90;;;;;;5030823;28;20799;-69
2023/10/15 03:46:49;;;;;;;6.57;1.08;;;10.10;99.90;;;;;;5031106;28;20415;-69
2023/10/15 03:49:15;;;;;;;4.28;0.60;;;10.20;99.90;;;;;;5030092;28;20473;-69
2023/10/15 03:51:41;;;;;;;4.00;0.50;;;10.30;99.90;;;;;;5030741;28;20394;-69
2023/10/15 03:54:13;;;;;;;4.90;0.52;;;10.30;67.00;;;;;;5030583;28;20960;-69
2023/10/15 03:56:43;;;;;;;4.30;0.52;;;10.40;24.40;;;;;;5030363;28;20916;-69
2023/10/15 03:59:11;;;;;;;6.90;0.70;;;10.30;99.90;;;;;;5030697;28;20387;-69
2023/10/15 04:01:42;;;;;;;5.17;0.80;;;10.40;99.90;;;;;;5030462;28;20392;-69
2023/10/15 04:04:09;;;;;;;6.80;0.90;;;10.40;99.90;;;;;;5030431;28;20877;-69
2023/10/15 04:06:35;;;;;;;3.90;0.50;;;10.40;99.90;;;;;;5030028;28;20488;-69
2023/10/15 04:11:31;;;;;;;3.90;0.50;;;10.50;99.90;;;;;;5030388;28;20490;-69
2023/10/15 04:13:57;;;;;;;4.28;0.60;;;10.40;99.90;;;;;;5030161;28;20903;-69
2023/10/15 04:16:23;;;;;;;4.90;1.10;;;10.30;1.00;;;;;;5027679;28;20976;-69
2023/10/15 04:18:49;;;;;;;3.90;0.30;;;10.20;1.00;;;;;;5030241;28;20391;-69
2023/10/15 04:21:17;;;;;;;4.60;1.00;;;10.20;1.00;;;;;;5029824;28;20877;-69
2023/10/15 04:23:49;;;;;;;4.75;1.10;;;10.20;1.00;;;;;;5027317;28;20883;-69
2023/10/15 04:26:15;;;;;;;5.00;0.60;;;10.30;1.00;;;;;;5029023;28;20403;-69
2023/10/15 04:28:41;;;;;;;3.80;0.32;;;10.30;1.00;;;;;;5030163;28;20433;-69
2023/10/15 04:31:22;;;;;;;5.20;0.80;;;10.30;1.00;;;;;;5029847;28;20754;-69
2023/10/15 04:33:51;;;;;;;5.10;1.00;;;10.20;1.00;;;;;;5028684;28;20387;-69
2023/10/15 04:36:17;;;;;;;5.50;1.50;;;10.30;1.00;;;;;;5029782;28;20912;-69
2023/10/15 04:38:43;;;;;;;4.10;0.60;;;10.20;1.00;;;;;;5026753;28;20398;-69
2023/10/15 04:41:10;;;;;;;4.45;0.82;;;10.40;1.00;;;;;;5029352;28;20395;-69
2023/10/15 04:43:46;;;;;;;5.00;0.80;;;10.40;1.00;;;;;;5029631;28;20477;-69
2023/10/15 04:46:17;;;;;;;4.70;0.80;;;10.30;1.00;;;;;;5028679;28;20470;-69
2023/10/15 04:48:47;;;;;;;4.50;0.80;;;10.30;1.00;;;;;;5026797;28;20478;-69
2023/10/15 04:51:13;;;;;;;4.60;0.50;;;10.30;1.00;;;;;;5029820;28;20825;-69
2023/10/15 04:53:49;;;;;;;4.30;0.80;;;10.40;1.00;;;;;;5029150;28;20743;-69
2023/10/15 04:56:16;;;;;;;8.90;1.10;;;10.50;1.00;;;;;;5029254;28;20414;-69
2023/10/15 04:58:42;;;;;;;5.50;0.90;;;10.50;1.00;;;;;;5028785;28;20406;-69
2023/10/15 05:01:08;;;;;;;3.97;0.50;;;10.40;1.00;;;;;;5029307;28;20843;-69
2023/10/15 05:03:36;;;;;;;5.20;0.80;;;10.40;1.00;;;;;;5029387;28;20612;-69
2023/10/15 05:06:03;;;;;;;3.80;0.50;;;10.50;1.00;;;;;;5029627;28;20430;-69
2023/10/15 05:08:29;;;;;;;3.90;0.45;;;10.50;1.00;;;;;;5029284;28;20414;-70
2023/10/15 05:10:55;;;;;;;4.40;0.80;;;10.40;1.00;;;;;;5029056;28;20550;-69
2023/10/15 05:13:21;;;;;;;3.60;0.30;;;10.30;1.00;;;;;;5029143;28;20478;-69
2023/10/15 05:15:50;;;;;;;3.80;0.38;;;10.40;1.00;;;;;;5029159;28;20418;-69
2023/10/15 05:18:18;;;;;;;3.95;0.45;;;10.30;1.00;;;;;;5028524;28;20387;-69
2023/10/15 05:20:44;;;;;;;4.40;1.00;;;10.30;1.00;;;;;;5026350;28;20395;-69
2023/10/15 05:23:11;;;;;;;4.40;0.75;;;10.30;1.00;;;;;;5028973;28;20383;-69
2023/10/15 05:25:39;;;;;;;5.10;0.90;;;10.20;1.00;;;;;;5028750;28;20395;-69
2023/10/15 05:28:06;;;;;;;6.80;0.60;;;10.30;1.00;;;;;;5026661;28;20402;-69
2023/10/15 05:30:31;;;;;;;3.80;0.50;;;10.40;1.00;;;;;;5029410;28;20394;-69
2023/10/15 05:33:00;;;;;;;4.50;0.60;;;10.40;1.00;;;;;;5028127;28;20414;-69
2023/10/15 05:35:27;;;;;;;4.70;1.00;;;10.50;1.00;;;;;;5026436;28;20427;-69
2023/10/15 05:37:57;;;;;;;4.00;0.50;;;10.50;1.00;;;;;;5028698;28;20809;-69
2023/10/15 05:40:22;;;;;;;4.00;0.63;;;10.40;1.00;;;;;;5024636;28;20430;-69
2023/10/15 05:42:51;;;;;;;5.60;0.80;;;10.50;1.00;;;;;;5028904;28;20801;-69
2023/10/15 05:45:18;;;;;;;6.05;0.80;;;10.50;1.00;;;;;;5028777;28;20395;-69
2023/10/15 05:47:44;;;;;;;4.00;0.57;;;10.40;1.00;;;;;;5026010;28;20461;-69
2023/10/15 05:50:10;;;;;;;6.03;1.20;;;10.40;1.00;;;;;;5028900;28;20371;-69
2023/10/15 05:52:35;;;;;;;3.90;0.50;;;10.50;1.00;;;;;;5027737;28;20457;-69
2023/10/15 05:55:02;;;;;;;7.90;0.60;;;10.40;1.00;;;;;;5029792;28;20759;-69
2023/10/15 05:57:28;;;;;;;4.70;0.90;;;10.40;1.00;;;;;;5028923;28;20437;-69
2023/10/15 05:59:56;;;;;;;4.20;0.93;;;10.20;1.00;;;;;;5029156;28;20415;-68
2023/10/15 06:02:22;;;;;;;4.15;0.65;;;10.20;1.00;;;;;;5027342;28;20399;-70
2023/10/15 06:04:48;;;;;;;3.80;0.50;;;10.30;1.00;;;;;;5028521;28;20880;-69
2023/10/15 06:07:15;;;;;;;4.10;0.80;;;10.30;1.00;;;;;;5023791;28;20435;-69
2023/10/15 06:09:41;;;;;;;4.80;0.90;;;10.30;1.00;;;;;;5028541;28;20387;-69
2023/10/15 06:12:06;;;;;;;4.00;0.70;;;10.30;1.00;;;;;;5030732;28;20382;-69
2023/10/15 06:14:32;;;;;;;4.40;1.40;;;10.20;1.00;;;;;;5029105;28;20953;-69
2023/10/15 06:16:59;;;;;;;4.50;0.60;;;10.20;1.00;;;;;;5028798;28;20531;-69
2023/10/15 06:19:25;;;;;;;3.90;0.50;;;10.20;1.00;;;;;;5028880;28;20486;-69
2023/10/15 06:21:51;;;;;;;8.75;0.70;;;10.20;1.00;;;;;;5029131;28;20952;-69
2023/10/15 06:24:17;;;;;;;3.80;0.60;;;10.20;1.00;;;;;;5028755;28;20383;-69
2023/10/15 06:26:44;;;;;;;3.90;0.80;;;10.10;1.00;;;;;;5033848;28;20415;-68
2023/10/15 06:29:09;;;;;;;4.28;0.90;;;10.20;1.00;;;;;;5036740;28;20402;-69
2023/10/15 06:31:37;;;;;;;4.18;0.80;;;10.20;1.00;;;;;;5040030;28;20462;-69
2023/10/15 06:34:02;;;;;;;7.20;0.90;;;10.30;1.00;;;;;;5038596;28;20747;-69
2023/10/15 06:36:28;;;;;;;5.10;0.80;;;10.40;1.00;;;;;;5041876;28;20458;-68
2023/10/15 06:38:56;;;;;;;4.43;0.70;;;10.50;1.00;;;;;;5040196;28;20449;-68
2023/10/15 06:41:22;;;;;;;3.90;0.60;;;10.60;1.00;;;;;;5038915;28;20445;-69
2023/10/15 06:43:47;;;;;;;5.90;1.10;;;10.70;1.00;;;;;;5040331;28;20494;-69
2023/10/15 06:46:13;;;;;;;4.10;0.70;;;10.80;1.00;;;;;;5029274;28;20504;-70
2023/10/15 06:48:39;;;;;;;4.00;0.60;;;10.90;1.00;;;;;;5033003;28;20394;-72
2023/10/15 06:51:06;;;;;;;6.73;1.17;;;11.20;1.00;;;;;;5031832;28;20391;-73
2023/10/15 06:53:32;;;;;;;6.93;1.23;;;12.00;1.00;;;;;;5032200;28;20438;-74
2023/10/15 06:55:58;;;;;;;5.00;1.20;;;12.60;1.00;;;;;;5031491;28;20426;-74
2023/10/15 06:58:25;;;;;;;8.10;1.33;;;13.50;99.90;;;;;;5028496;28;20398;-74
2023/10/15 07:00:54;;;;;;;4.88;0.90;;;13.70;1.00;;;;;;5031255;28;20904;-71
2023/10/15 07:03:20;;;;;;;4.00;0.57;;;13.60;1.00;;;;;;5031950;28;20437;-74
2023/10/15 07:05:45;;;;;;;4.70;0.90;;;13.00;99.90;;;;;;5031622;28;20387;-76
2023/10/15 07:08:11;;;;;;;4.70;0.70;;;12.70;14.40;;;;;;5030943;28;20829;-76
2023/10/15 07:10:37;;;;;;;4.73;1.00;;;12.40;1.00;;;;;;5032072;28;20430;-76
2023/10/15 07:13:03;;;;;;;4.60;0.80;;;12.20;80.90;;;;;;5028538;28;20403;-76
2023/10/15 07:15:29;;;;;;;6.35;1.30;;;12.30;99.90;;;;;;5031784;28;20512;-76
2023/10/15 07:17:55;;;;;;;6.90;0.80;;;12.30;1.00;;;;;;5030918;28;20902;-75
2023/10/15 07:20:23;;;;;;;4.50;0.70;;;12.20;1.00;;;;;;5033917;28;20401;-74
2023/10/15 07:22:50;;;;;;;4.28;0.82;;;12.00;1.00;;;;;;5031035;28;20399;-74
2023/10/15 07:25:16;;;;;;;4.60;0.80;;;11.80;99.90;;;;;;5031436;28;20425;-76
2023/10/15 07:27:45;;;;;;;5.80;1.10;;;11.80;99.90;;;;;;5030458;28;20411;-76
2023/10/15 07:30:15;;;;;;;4.38;0.82;;;11.80;99.90;;;;;;5031578;28;20392;-76
2023/10/15 07:32:44;;;;;;;6.82;0.70;;;11.70;99.90;;;;;;5030285;28;20407;-76
2023/10/15 07:35:14;;;;;;;8.25;0.85;;;11.60;99.90;;;;;;5032768;28;20399;-76
2023/10/15 07:37:46;;;;;;;7.07;1.35;;;11.70;99.90;;;;;;5030803;28;20415;-73
2023/10/15 07:40:21;;;;;;;4.70;1.20;;;12.40;99.90;;;;;;5013147;28;20932;-71
2023/10/15 07:42:52;;;;;;;6.22;1.00;;;13.60;1.00;;;;;;5030777;28;20865;-71
2023/10/15 07:45:19;;;;;;;6.35;0.98;;;14.50;99.90;;;;;;5030763;28;20422;-71
2023/10/15 07:47:46;;;;;;;5.10;1.17;;;15.70;99.90;;;;;;5029665;28;20387;-71
2023/10/15 07:50:13;;;;;;;5.70;0.80;;;16.70;99.90;;;;;;5029100;28;20952;-70
2023/10/15 07:52:39;;;;;;;5.00;0.90;;;17.10;1.00;;;;;;5030586;28;20897;-71
2023/10/15 07:55:10;;;;;;;4.60;0.80;;;17.10;1.00;;;;;;5033824;28;20454;-71
2023/10/15 07:57:37;;;;;;;5.00;0.90;;;16.60;1.00;;;;;;5030243;28;20399;-72
2023/10/15 08:00:10;;;;;;;5.30;0.70;;;15.60;1.00;;;;;;5029742;28;20496;-71
2023/10/15 08:02:35;;;;;;;4.53;0.90;;;14.30;99.90;;;;;;5024997;28;20420;-71
2023/10/15 08:05:01;;;;;;;7.30;1.00;;;14.30;99.90;;;;;;5031048;28;20855;-71
2023/10/15 08:07:28;;;;;;;4.70;0.80;;;14.20;99.90;;;;;;5028804;28;20908;-70
2023/10/15 08:09:54;;;;;;;5.00;1.48;;;14.70;99.90;;;;;;5030717;28;20671;-70
2023/10/15 08:12:20;;;;;;;4.43;0.77;;;14.60;99.90;;;;;;5030761;28;20471;-71
2023/10/15 08:14:46;;;;;;;7.70;1.38;;;14.10;99.90;;;;;;5028973;28;20399;-72
2023/10/15 08:17:15;;;;;;;4.20;0.55;;;13.60;1.00;;;;;;5026719;28;20431;-72
2023/10/15 08:19:41;;;;;;;4.70;0.80;;;13.70;99.90;;;;;;5027940;28;20399;-71
2023/10/15 08:22:08;;;;;;;4.80;0.80;;;14.00;1.00;;;;;;5033386;28;20387;-71
2023/10/15 08:24:34;;;;;;;6.20;1.00;;;;;;;;;;5030041;28;20394;-71
2023/10/15 08:27:00;;;;;;;4.80;1.20;;;16.90;1.00;;;;;;5027881;28;20399;-71
2023/10/15 08:29:26;;;;;;;6.33;1.43;;;17.20;1.00;;;;;;5029898;28;20889;-72
2023/10/15 08:31:51;;;;;;;4.50;0.90;;;16.80;1.00;;;;;;5027920;28;20398;-72
2023/10/15 08:34:17;;;;;;;5.20;1.00;;;15.60;1.00;;;;;;5027718;28;20913;-72
2023/10/15 08:36:43;;;;;;;6.40;0.90;;;14.70;1.00;;;;;;5029598;28;20777;-72
2023/10/15 08:39:08;;;;;;;5.93;1.25;;;14.10;99.90;;;;;;5029945;28;20437;-73
2023/10/15 08:41:39;;;;;;;5.78;0.98;;;13.40;1.00;;;;;;5030204;28;20403;-73
2023/10/15 08:44:08;;;;;;;4.53;0.73;;;13.30;99.90;;;;;;5029407;28;20393;-72
2023/10/15 08:46:37;;;;;;;5.63;1.02;;;13.10;1.00;;;;;;5029771;28;20738;-73
2023/10/15 08:49:08;;;;;;;4.50;0.60;;;13.40;99.90;;;;;;5026825;28;21291;-72
2023/10/15 08:51:34;;;;;;;8.05;0.70;;;13.70;99.90;;;;;;5027768;28;20394;-72
2023/10/15 08:54:04;;;;;;;10.73;1.10;;;13.30;99.90;;;;;;5028407;28;20442;-72
2023/10/15 08:56:31;;;;;;;7.40;0.70;;;12.90;99.90;;;;;;5030047;28;20415;-72
2023/10/15 08:58:57;;;;;;;7.40;0.90;;;12.70;99.90;;;;;;5027480;28;20514;-72
2023/10/15 09:01:23;;;;;;;4.57;0.80;;;14.10;1.00;;;;;;5029413;28;20463;-71
2023/10/15 09:03:52;;;;;;;4.50;0.60;;;15.90;1.00;;;;;;5029421;28;20725;-71
2023/10/15 09:06:19;;;;;;;6.43;0.93;;;16.60;1.00;;;;;;5028959;28;20441;-71
2023/10/15 09:08:51;;;;;;;6.43;0.70;;;17.60;1.00;;;;;;5029016;28;20411;-71
2023/10/15 09:11:16;;;;;;;4.57;0.50;;;18.40;1.00;;;;;;5024010;28;20431;-72
2023/10/15 09:13:49;;;;;;;5.57;1.08;;;18.70;99.90;;;;;;5030324;28;20450;-72
2023/10/15 09:16:15;;;;;;;5.38;1.20;;;19.10;99.90;;;;;;5021780;28;20752;-73
2023/10/15 09:18:43;;;;;;;5.57;0.80;;;19.00;99.90;;;;;;5005140;28;20410;-73
2023/10/15 09:21:09;;;;;;;8.00;1.10;;;19.80;99.90;;;;;;5028734;28;20401;-72
2023/10/15 09:23:37;;;;;;;7.30;1.00;;;19.80;99.90;;;;;;5028467;28;20498;-70
2023/10/15 09:26:07;;;;;;;6.50;1.00;;;20.30;99.90;;;;;;5029674;28;20391;-72
2023/10/15 09:28:35;;;;;;;6.20;0.90;;;20.60;99.90;;;;;;5028219;28;20403;-72
2023/10/15 09:31:09;;;;;;;7.30;1.30;;;20.20;99.90;;;;;;5028273;28;20410;-73
2023/10/15 09:33:35;;;;;;;4.93;0.82;;;19.60;99.90;;;;;;5028614;28;20416;-71
2023/10/15 09:36:03;;;;;;;5.50;1.10;;;20.20;99.90;;;;;;5027866;28;20544;-72
2023/10/15 09:38:31;;;;;;;4.82;0.85;;;19.30;99.90;;;;;;5028042;28;20414;-72
2023/10/15 09:40:58;;;;;;;5.70;0.63;;;18.10;99.90;;;;;;5029189;28;20437;-71
2023/10/15 09:43:25;;;;;;;9.38;0.90;;;17.60;99.90;;;;;;5027116;28;20881;-72
2023/10/15 09:45:57;;;;;;;5.63;1.30;;;17.60;99.90;;;;;;5031576;28;20484;-72
2023/10/15 09:48:27;;;;;;;6.90;0.90;;;17.20;99.90;;;;;;5027690;28;20394;-72
2023/10/15 09:50:59;;;;;;;5.25;1.10;;;15.90;99.90;;;;;;5028492;28;20396;-72
2023/10/15 09:53:28;;;;;;;4.40;0.80;;;15.80;99.90;;;;;;5029463;28;20387;-72
2023/10/15 09:55:57;;;;;;;4.30;0.60;;;16.40;99.90;;;;;;5026975;28;20515;-70
2023/10/15 09:58:24;;;;;;;4.80;1.02;;;15.80;99.90;;;;;;5028571;28;20402;-71
2023/10/15 10:01:16;;;;;;;5.10;0.70;;;15.40;99.90;;;;;;5028674;28;20492;-72
2023/10/15 10:03:48;;;;;;;5.70;1.10;;;14.70;99.90;;;;;;5026686;28;20423;-72
2023/10/15 10:06:39;;;;;;;4.40;0.70;;;14.10;99.90;;;;;;5033027;28;20785;-72
2023/10/15 10:09:42;;;;;;;5.70;1.15;;;13.70;99.90;;;;;;5032752;28;20808;-71
2023/10/15 10:12:44;;;;;;;6.10;1.00;;;13.80;1.00;;;;;;5031330;28;20395;-71
2023/10/15 10:15:42;;;;;;;13.25;0.90;;;15.90;99.90;;;;;;5030888;28;20411;-72
2023/10/15 10:18:11;;;;;;;6.47;1.23;;;17.20;99.90;;;;;;5012180;28;20405;-72
2023/10/15 10:20:38;;;;;;;5.80;1.10;;;17.40;99.90;;;;;;5011418;28;20396;-72
2023/10/15 10:23:05;;;;;;;6.00;0.90;;;17.00;99.90;;;;;;5030599;28;20789;-69
2023/10/15 10:25:45;;;;;;;4.60;0.60;;;16.10;99.90;;;;;;5032974;28;20395;-72
2023/10/15 10:28:20;;;;;;;5.20;0.80;;;15.00;99.90;;;;;;5017494;28;20410;-72
2023/10/15 10:30:54;;;;;;;4.70;0.70;;;13.90;99.90;;;;;;5028891;28;20407;-72
2023/10/15 10:33:54;;;;;;;4.20;0.50;;;13.00;1.00;;;;;;5031822;28;20915;-72
2023/10/15 10:36:27;;;;;;;6.20;0.70;;;12.30;1.00;;;;;;5028441;28;20438;-72
2023/10/15 10:39:10;;;;;;;5.18;0.80;;;12.00;99.90;;;;;;5029619;28;20391;-72
2023/10/15 10:41:38;;;;;;;5.50;1.30;;;11.90;1.00;;;;;;5031499;28;20402;-73
2023/10/15 10:44:06;;;;;;;4.90;0.55;;;12.70;99.90;;;;;;5030156;28;20413;-71
2023/10/15 10:46:43;;;;;;;4.10;0.50;;;13.50;99.90;;;;;;5035563;28;20415;-72
2023/10/15 10:49:13;;;;;;;4.30;0.70;;;13.70;99.90;;;;;;5030409;28;20407;-73
2023/10/15 10:51:41;;;;;;;4.40;0.68;;;13.40;99.90;;;;;;5030494;28;20901;-72
2023/10/15 10:54:07;;;;;;;9.20;1.10;;;13.10;99.90;;;;;;5031905;28;20391;-73
2023/10/15 10:56:38;;;;;;;4.30;0.70;;;12.90;1.00;;;;;;5029877;28;20423;-73
2023/10/15 10:59:06;;;;;;;4.60;0.63;;;12.70;99.90;;;;;;5035908;28;20838;-74
2023/10/15 11:01:37;;;;;;;9.02;1.70;;;13.00;1.00;;;;;;5039932;28;20392;-72
2023/10/15 11:04:04;;;;;;;4.93;0.80;;;14.20;99.90;;;;;;5032483;28;20403;-72
2023/10/15 11:06:29;;;;;;;4.10;0.50;;;14.90;1.00;;;;;;5030146;28;20398;-72
2023/10/15 11:08:55;;;;;;;6.70;1.00;;;15.30;1.00;;;;;;5031979;28;20469;-72
2023/10/15 11:11:20;;;;;;;4.90;1.20;;;15.60;1.00;;;;;;5031528;28;20456;-72
2023/10/15 11:13:49;;;;;;;4.80;0.70;;;15.80;1.00;;;;;;5031121;28;20472;-72
2023/10/15 11:16:16;;;;;;;4.30;0.50;;;15.80;1.00;;;;;;5030123;28;20461;-71
2023/10/15 11:18:45;;;;;;;4.28;0.63;;;15.80;1.00;;;;;;5051036;28;20883;-70
2023/10/15 11:21:10;;;;;;;4.90;0.83;;;15.20;99.90;;;;;;5051614;28;20385;-71
2023/10/15 11:23:36;;;;;;;4.32;0.60;;;15.20;1.00;;;;;;5052693;28;20397;-72
2023/10/15 11:26:01;;;;;;;4.30;0.60;;;15.10;99.90;;;;;;5041469;28;20396;-71
2023/10/15 11:28:27;;;;;;;4.20;0.37;;;14.70;99.90;;;;;;5030473;28;20431;-71
2023/10/15 11:30:53;;;;;;;5.10;0.90;;;14.00;99.90;;;;;;5030648;28;20399;-71
2023/10/15 11:33:19;;;;;;;4.65;0.68;;;13.70;99.90;;;;;;5032952;28;20873;-71
2023/10/15 11:35:53;;;;;;;4.20;0.50;;;13.40;99.90;;;;;;5030685;28;20474;-72
2023/10/15 11:38:20;;;;;;;4.40;0.50;;;13.40;1.00;;;;;;5030205;28;20827;-72
2023/10/15 11:40:46;;;;;;;7.05;1.00;;;13.30;1.00;;;;;;5030069;28;20401;-72
2023/10/15 11:43:17;;;;;;;5.10;0.70;;;13.20;1.00;;;;;;5030572;28;20721;-73
2023/10/15 11:45:43;;;;;;;4.65;0.70;;;13.70;1.00;;;;;;5035316;28;20403;-72
2023/10/15 11:48:21;;;;;;;5.60;0.70;;;14.10;99.90;;;;;;5028780;28;20427;-72
2023/10/15 11:50:50;;;;;;;4.60;0.70;;;14.40;99.90;;;;;;5031671;28;20800;-72
2023/10/15 11:53:17;;;;;;;4.80;1.00;;;14.70;99.90;;;;;;5039546;28;20402;-71
2023/10/15 11:55:52;;;;;;;6.80;0.70;;;14.90;99.90;;;;;;5043809;28;20470;-72
2023/10/15 11:58:19;;;;;;;4.20;0.43;;;14.10;99.90;;;;;;5030656;28;20407;-73
2023/10/15 12:00:48;;;;;;;4.50;0.80;;;13.80;99.90;;;;;;5030711;28;20398;-72
2023/10/15 12:03:16;;;;;;;4.65;0.60;;;13.60;99.90;;;;;;5028555;28;20407;-72
2023/10/15 12:05:45;;;;;;;5.40;0.80;;;13.80;99.90;;;;;;5035384;28;20408;-71
2023/10/15 12:08:12;;;;;;;5.20;0.40;;;14.20;99.90;;;;;;5030059;28;20930;-71
2023/10/15 12:10:41;;;;;;;4.32;0.55;;;14.50;99.90;;;;;;5044612;28;20882;-71
2023/10/15 12:13:08;;;;;;;4.90;1.10;;;14.40;99.90;;;;;;5050309;28;20393;-71
2023/10/15 12:15:34;;;;;;;5.43;0.70;;;14.40;99.90;;;;;;5045356;28;20817;-71
2023/10/15 12:18:00;;;;;;;5.10;0.60;;;14.60;99.90;;;;;;5022271;28;20724;-71
2023/10/15 12:20:26;;;;;;;5.63;0.77;;;14.60;99.90;;;;;;5029124;28;20429;-71
2023/10/15 12:22:52;;;;;;;6.65;0.82;;;14.30;99.90;;;;;;5028459;28;20897;-71
2023/10/15 12:25:18;;;;;;;5.50;0.55;;;14.30;99.90;;;;;;5030444;28;20486;-71
2023/10/15 12:27:43;;;;;;;4.13;0.40;;;14.10;99.90;;;;;;5027912;28;20901;-71
2023/10/15 12:30:27;;;;;;;7.00;0.80;;;14.00;99.90;;;;;;5028903;28;20901;-71
2023/10/15 12:32:58;;;;;;;6.97;1.48;;;13.50;99.90;;;;;;5028950;28;20432;-71
2023/10/15 12:35:27;;;;;;;4.67;0.77;;;13.50;99.90;;;;;;5026551;28;20973;-71
2023/10/15 12:38:02;;;;;;;4.97;1.25;;;13.50;99.90;;;;;;5027423;28;20407;-71
2023/10/15 12:40:32;;;;;;;5.90;1.00;;;13.40;99.90;;;;;;5029425;28;20391;-72
2023/10/15 12:42:59;;;;;;;4.30;0.60;;;13.40;99.90;;;;;;5028663;28;20430;-72
2023/10/15 12:45:25;;;;;;;4.40;0.70;;;13.50;99.90;;;;;;5029393;28;20394;-72
2023/10/15 12:47:51;;;;;;;4.60;0.70;;;13.40;99.90;;;;;;5026774;28;20620;-72
2023/10/15 12:50:17;;;;;;;6.10;0.63;;;13.50;99.90;;;;;;5029186;28;20470;-72
2023/10/15 12:52:47;;;;;;;5.45;0.70;;;13.40;99.90;;;;;;5011775;28;20420;-71
2023/10/15 12:55:19;;;;;;;4.30;0.50;;;13.50;99.90;;;;;;5027989;28;20445;-71
2023/10/15 12:57:50;;;;;;;5.87;0.80;;;14.00;99.90;;;;;;5029062;28;20773;-71
2023/10/15 13:00:21;;;;;;;6.90;0.90;;;14.10;99.90;;;;;;5027733;28;20897;-71
2023/10/15 13:02:51;;;;;;;4.50;0.60;;;13.90;99.90;;;;;;5028940;28;20414;-72
2023/10/15 13:05:21;;;;;;;4.88;0.70;;;13.70;99.90;;;;;;5026064;28;20391;-71
2023/10/15 13:07:47;;;;;;;4.80;0.70;;;13.20;99.90;;;;;;5028911;28;21208;-71
2023/10/15 13:10:17;;;;;;;6.60;0.85;;;13.10;99.90;;;;;;5011786;28;20462;-71
2023/10/15 13:12:44;;;;;;;6.10;0.73;;;13.30;99.90;;;;;;5028046;28;20387;-71